SM6PGP-2 Kungsbacka SE current weather conditions

sailwx.info

Wind from 247 at 0 knots gusting 2

Air temperature 8.9° C
Dewpoint 8.3° C

Last reported at 2019-Sep-21 06:07 UTC.
Time now 2019-Sep-21 06:44 UTC

Location: N 57°28' E 012°05'.
View on Google Maps.

See reports from other nearby stations

  
Tides and Currents Weather Stations Pressure Air Temp Water Temp Dewpoint Dewpoint Depression Visibility Wind Speed Wind Dir Waves Ship Positions
date/time (UTC)wind fromknots sea level pressurealtimeterstation pressurevisibilityair tempwater tempwave heightnotes
2019-Sep-21 06:07 247 0 gusting 2 8.9
2019-Sep-21 06:02 270 0 gusting 1 8.9
2019-Sep-21 05:52 090 8.3
2019-Sep-21 05:47 225 8.3
2019-Sep-21 05:42 8.3
2019-Sep-21 05:37 243 0 gusting 1 8.3
2019-Sep-21 05:31 346 0 gusting 1 7.8
2019-Sep-21 05:26 225 1 gusting 1 7.8
2019-Sep-21 05:21 243 7.8
2019-Sep-21 05:16 7.8
2019-Sep-21 05:11 7.8
2019-Sep-21 05:06 270 1 gusting 1 7.8
2019-Sep-21 04:56 346 1 gusting 1 7.2
2019-Sep-21 04:51 225 0 gusting 1 7.2
2019-Sep-21 04:46 7.2
2019-Sep-21 04:41 225 7.2
2019-Sep-21 04:35 346 7.2
2019-Sep-21 04:30 7.2
2019-Sep-21 04:20 346 0 gusting 0 7.2
2019-Sep-21 04:15 288 1 gusting 2 7.2
2019-Sep-21 04:00 333 6.7
2019-Sep-21 03:50 346 1 gusting 2 6.7
2019-Sep-21 03:40 225 0 gusting 1 6.7
2019-Sep-21 03:34 333 0 gusting 1 6.7
2019-Sep-21 03:29 346 0 gusting 0 6.7
2019-Sep-21 03:24 7.2
2019-Sep-21 03:19 7.2
2019-Sep-21 03:14 7.2
2019-Sep-21 03:09 346 3 gusting 3 7.2
2019-Sep-21 03:04 346 2 gusting 4 7.8
2019-Sep-21 02:49 7.8
2019-Sep-21 02:44 7.8
2019-Sep-21 02:38 346 3 gusting 3 7.8
2019-Sep-21 02:33 346 1 gusting 1 7.8
2019-Sep-21 02:23 8.3
2019-Sep-21 02:18 337 0 gusting 2 7.8
2019-Sep-21 02:13 225 0 gusting 1 7.8
2019-Sep-21 02:03 337 7.2
2019-Sep-21 01:53 337 7.2
2019-Sep-21 01:48 270 7.8
2019-Sep-21 01:43 270 7.8
2019-Sep-21 01:32 270 7.8
2019-Sep-21 01:27 337 8.3
2019-Sep-21 01:22 270 8.3
2019-Sep-21 01:17 270 8.3
2019-Sep-21 01:12 333 0 gusting 0 8.3
2019-Sep-21 01:07 355 8.3
2019-Sep-21 01:02 135 1 gusting 2 8.3
2019-Sep-21 00:57 135 1 gusting 1 8.3
2019-Sep-21 00:52 337 8.3
2019-Sep-21 00:47 135 8.3
2019-Sep-21 00:36 135 8.3
2019-Sep-21 00:31 135 8.9
2019-Sep-21 00:26 135 8.9
2019-Sep-20 23:51 270 10.6
2019-Sep-20 23:20 153 2 gusting 2 10.6
2019-Sep-20 23:05 180 2 gusting 3 10.6
2019-Sep-20 22:19 135 4 gusting 4 11.1
2019-Sep-20 21:49 153 4 gusting 4 11.7
2019-Sep-20 21:43 135 2 gusting 3 11.7
2019-Sep-20 21:08 045 5 gusting 7 12.2
2019-Sep-20 21:03 045 4 gusting 7 12.2
2019-Sep-20 20:37 180 2 gusting 4 12.8
2019-Sep-20 20:17 292 5 gusting 7 13.3
2019-Sep-20 19:57 180 6 gusting 7 13.3
2019-Sep-20 19:36 180 6 gusting 7 13.3
2019-Sep-20 19:31 180 3 gusting 6 13.3
2019-Sep-20 19:26 301 6 gusting 7 13.3
2019-Sep-20 19:16 297 5 gusting 7 13.3
2019-Sep-20 19:06 315 6 gusting 6 13.9
2019-Sep-20 19:01 315 5 gusting 6 13.9
2019-Sep-20 18:56 315 5 gusting 6 13.9
2019-Sep-20 18:45 292 2 gusting 9 13.3
2019-Sep-20 17:29 297 4 gusting 5 13.9
2019-Sep-20 14:57 270 10 gusting 18 15.0
2019-Sep-20 14:46 270 13 gusting 14 15.6
2019-Sep-20 14:26 270 9 gusting 13 16.1
2019-Sep-20 14:21 270 9 gusting 14 16.1
2019-Sep-20 14:16 270 8 gusting 12 16.1
2019-Sep-20 13:45 270 5 gusting 9 16.7
2019-Sep-20 13:40 270 5 gusting 10 16.1
2019-Sep-20 13:35 270 8 gusting 11 15.6
2019-Sep-20 13:30 310 12 gusting 14 15.6
2019-Sep-20 13:25 270 4 gusting 10 16.1
2019-Sep-20 12:44 270 6 gusting 11 16.1
2019-Sep-20 12:39 16.1
2019-Sep-20 12:34 315 6 gusting 13 16.1
2019-Sep-20 12:29 270 7 gusting 12 16.1
2019-Sep-20 12:24 270 3 gusting 12 16.7
2019-Sep-20 12:19 279 4 gusting 10 16.7
2019-Sep-20 12:14 315 4 gusting 9 16.7
2019-Sep-20 12:09 288 6 gusting 13 17.2
2019-Sep-20 12:04 270 4 gusting 10 17.2
2019-Sep-20 11:59 288 9 gusting 11 17.2
2019-Sep-20 11:53 288 8 gusting 13 17.2
2019-Sep-20 11:43 270 13 gusting 14 17.2
2019-Sep-20 11:38 270 9 gusting 13 17.8
2019-Sep-20 11:33 270 3 gusting 14 17.8
2019-Sep-20 11:28 009 4 gusting 15 17.8
2019-Sep-20 11:23 288 3 gusting 9 17.2
2019-Sep-20 11:18 270 8 gusting 14 16.7
2019-Sep-20 11:13 270 9 gusting 11 16.7
2019-Sep-20 11:08 288 9 gusting 14 16.7
2019-Sep-20 11:03 270 8 gusting 16 16.7
2019-Sep-20 10:57 270 5 gusting 11 17.2
2019-Sep-20 10:52 270 6 gusting 10 16.7
2019-Sep-20 10:47 270 5 gusting 9 16.1
2019-Sep-20 10:42 288 9 gusting 13 15.6
2019-Sep-20 10:37 270 10 gusting 10 15.6
2019-Sep-20 10:32 270 7 gusting 13 15.0
2019-Sep-20 10:27 15.0
2019-Sep-20 10:17 288 6 gusting 6 15.0
2019-Sep-20 10:12 342 8 gusting 9 15.0
2019-Sep-20 10:07 270 7 gusting 10 14.4
2019-Sep-20 10:02 264 2 gusting 7 14.4
2019-Sep-20 09:56 337 1 gusting 3 14.4
2019-Sep-20 09:51 288 3 gusting 7 14.4
2019-Sep-20 09:46 270 13 gusting 13 14.4
2019-Sep-20 09:41 306 4 gusting 7 14.4
2019-Sep-20 09:36 270 6 gusting 6 14.4
2019-Sep-20 09:31 270 1 gusting 7 14.4
2019-Sep-20 09:26 270 4 gusting 10 14.4
2019-Sep-20 09:21 283 2 gusting 12 15.0
2019-Sep-20 09:16 288 14 gusting 19 15.0
2019-Sep-20 09:11 270 6 gusting 12 15.6
2019-Sep-20 09:06 324 4 gusting 12 15.6
2019-Sep-20 09:00 324 2 gusting 12 15.6
2019-Sep-20 08:55 270 6 gusting 9 15.6
2019-Sep-20 08:45 288 6 gusting 11 15.0
2019-Sep-20 08:40 342 1 gusting 9 15.0
2019-Sep-20 08:35 270 3 gusting 6 15.0
2019-Sep-20 08:30 315 0 gusting 8 14.4
2019-Sep-20 08:25 306 2 gusting 4 14.4
2019-Sep-20 08:20 270 4 gusting 6 13.9
2019-Sep-20 08:15 270 5 gusting 13 13.9
2019-Sep-20 08:10 270 6 gusting 9 13.9
2019-Sep-20 08:05 292 6 gusting 13 13.9
2019-Sep-20 07:59 310 6 gusting 11 13.3
2019-Sep-20 07:54 274 1 gusting 11 13.3
2019-Sep-20 07:49 292 6 gusting 13 13.3
2019-Sep-20 07:44 322 6 gusting 6 12.8
2019-Sep-20 07:39 12.8
2019-Sep-20 07:34 270 9 gusting 9 12.2
2019-Sep-20 07:29 11.7
2019-Sep-20 07:24 045 4 gusting 4 11.7
2019-Sep-20 07:19 045 1 gusting 1 11.1
2019-Sep-20 07:14 045 10.6
2019-Sep-20 07:09 045 10.6
2019-Sep-20 07:03 090 10.6
2019-Sep-20 06:58 090 10.6
2019-Sep-20 06:53 090 1 gusting 1 10.0
2019-Sep-20 06:48 090 1 gusting 1 10.0
2019-Sep-20 06:43 090 1 gusting 2 9.4
2019-Sep-20 06:38 355 9.4
2019-Sep-20 06:33 337 8.9
2019-Sep-20 06:28 337 8.9
2019-Sep-20 06:23 337 8.3
2019-Sep-20 06:18 337 1 gusting 2 8.3
2019-Sep-20 06:13 090 8.3
2019-Sep-20 06:08 090 0 gusting 1 7.8
2019-Sep-20 06:02 135 7.8
2019-Sep-20 05:57 333 7.2
2019-Sep-20 05:52 337 7.2
2019-Sep-20 05:47 337 6.7
2019-Sep-20 05:42 135 6.7
2019-Sep-20 05:37 337 6.7
2019-Sep-20 05:32 031 6.1
2019-Sep-20 05:27 333 6.1
2019-Sep-20 05:22 6.1
2019-Sep-20 05:17 346 6.1
2019-Sep-20 05:12 045 6.1
2019-Sep-20 05:06 027 6.1
2019-Sep-20 05:01 045 6.1
2019-Sep-20 04:56 045 6.1
2019-Sep-20 04:51 292 6.1
2019-Sep-20 04:46 270 6.1
2019-Sep-20 04:41 270 6.1
2019-Sep-20 04:36 270 0 gusting 1 6.1
2019-Sep-20 04:31 337 0 gusting 0 6.1
2019-Sep-20 04:26 135 6.1
2019-Sep-20 04:21 135 1 gusting 2 6.1
2019-Sep-20 04:16 301 1 gusting 1 6.1
2019-Sep-20 04:11 297 6.1
2019-Sep-20 04:05 292 6.1
2019-Sep-20 04:00 346 6.1
2019-Sep-20 03:55 342 6.1
2019-Sep-20 03:50 337 6.1
2019-Sep-20 03:45 337 6.1
2019-Sep-20 03:40 337 6.1
2019-Sep-20 03:30 337 5.6
2019-Sep-20 03:25 337 5.6
2019-Sep-20 03:20 337 5.6
2019-Sep-20 03:15 135 5.6
2019-Sep-20 03:09 135 5.6
2019-Sep-20 03:04 135 5.6
2019-Sep-20 02:59 135 5.6
2019-Sep-20 02:54 135 5.6
2019-Sep-20 02:49 135 5.6
2019-Sep-20 02:44 135 5.6
2019-Sep-20 02:39 135 5.6
2019-Sep-20 02:34 135 5.6
2019-Sep-20 02:29 045 5.6
2019-Sep-20 02:24 180 0 gusting 0 5.6
2019-Sep-20 02:19 337 5.0
2019-Sep-20 02:13 337 5.0
2019-Sep-20 02:08 337 5.0
2019-Sep-20 02:03 5.6
2019-Sep-20 01:58 337 5.6
2019-Sep-20 01:53 346 1 gusting 3 5.0
2019-Sep-20 01:48 5.0
2019-Sep-20 01:43 5.0
2019-Sep-20 01:38 270 1 gusting 1 5.0
2019-Sep-20 01:33 270 5.0
2019-Sep-20 01:28 270 5.0
2019-Sep-20 01:23 270 5.0
2019-Sep-20 01:18 270 5.0
2019-Sep-20 01:12 270 5.0
2019-Sep-20 01:07 270 5.0
2019-Sep-20 01:02 270 5.6
2019-Sep-20 00:52 270 0 gusting 1 5.6
2019-Sep-20 00:47 270 0 gusting 1 5.6
2019-Sep-20 00:42 270 0 gusting 1 5.6
2019-Sep-20 00:37 270 1 gusting 1 5.6
2019-Sep-20 00:32 5.6
2019-Sep-20 00:27 346 1 gusting 1 5.6
2019-Sep-20 00:22 5.6
2019-Sep-20 00:16 346 0 gusting 1 5.6
2019-Sep-20 00:11 337 1 gusting 1 5.6
2019-Sep-20 00:06 337 0 gusting 2 5.6
2019-Sep-20 00:01 5.6
2019-Sep-19 22:35 337 1 gusting 1 4.4
2019-Sep-19 18:46 270 5.6
2019-Sep-19 18:31 180 6.1
2019-Sep-19 18:20 180 6.1
2019-Sep-19 18:00 337 6.7
2019-Sep-19 17:50 310 7.2
2019-Sep-19 17:40 135 7.2
2019-Sep-19 17:14 135 8.3
2019-Sep-19 16:59 337 10.0
2019-Sep-19 16:49 270 10.6
2019-Sep-19 15:43 324 1 gusting 4 12.2
2019-Sep-19 15:33 12.2
2019-Sep-19 15:27 12.2
2019-Sep-19 15:17 301 4 gusting 6 12.8
2019-Sep-19 15:12 270 3 gusting 7 12.8
2019-Sep-19 14:57 210 3 gusting 10 12.8
2019-Sep-19 14:32 288 1 gusting 9 13.3
2019-Sep-19 14:26 288 4 gusting 9 13.3
2019-Sep-19 14:21 240 1 gusting 6 13.3
2019-Sep-19 14:16 306 4 gusting 6 13.3
2019-Sep-19 14:06 306 3 gusting 8 13.3
2019-Sep-19 13:46 247 6 gusting 7 12.8
2019-Sep-19 13:25 12.8
2019-Sep-19 13:20 288 6 gusting 11 13.3
2019-Sep-19 13:15 288 6 gusting 11 13.3
2019-Sep-19 13:10 270 6 gusting 9 13.3
2019-Sep-19 13:05 337 3 gusting 8 13.3
2019-Sep-19 12:55 301 3 gusting 8 13.9
2019-Sep-19 12:50 270 3 gusting 10 13.9
2019-Sep-19 12:45 270 9 gusting 11 13.9
2019-Sep-19 12:40 342 7 gusting 13 14.4
2019-Sep-19 12:35 306 6 gusting 12 13.9
2019-Sep-19 12:29 288 5 gusting 9 14.4
2019-Sep-19 12:19 315 3 gusting 10 14.4
2019-Sep-19 12:04 270 1 gusting 6 14.4
2019-Sep-19 11:54 337 3 gusting 6 14.4
2019-Sep-19 11:49 270 6 gusting 10 14.4
2019-Sep-19 11:44 270 4 gusting 9 14.4
2019-Sep-19 11:39 324 7 gusting 8 14.4
2019-Sep-19 11:28 288 5 gusting 6 15.0
2019-Sep-19 11:23 210 1 gusting 7 14.4
2019-Sep-19 11:13 270 7 gusting 9 15.0
2019-Sep-19 11:03 15.0
2019-Sep-19 10:58 288 3 gusting 6 15.0
2019-Sep-19 10:38 270 2 gusting 8 15.6
2019-Sep-19 10:32 15.6
2019-Sep-19 10:22 090 3 gusting 6 15.6
2019-Sep-19 10:17 225 4 gusting 6 15.6
2019-Sep-19 09:57 225 4 gusting 6 15.6
2019-Sep-19 09:52 240 2 gusting 5 15.6
2019-Sep-19 09:47 270 2 gusting 4 15.0
2019-Sep-19 09:42 225 5 gusting 8 14.4
2019-Sep-19 09:37 090 1 gusting 8 14.4
2019-Sep-19 09:31 14.4
2019-Sep-19 09:16 14.4
2019-Sep-19 09:11 090 2 gusting 3 14.4
2019-Sep-19 08:51 225 0 gusting 7 13.3
2019-Sep-19 07:24 247 6 gusting 6 8.9
2019-Sep-19 07:14 8.3
2019-Sep-19 07:09 337 1 gusting 1 7.8
2019-Sep-19 06:59 090 7.2
2019-Sep-19 06:54 090 6.7
2019-Sep-19 06:49 135 6.1
2019-Sep-19 06:38 135 4.4
2019-Sep-19 06:33 135 3.9
2019-Sep-19 06:28 135 3.9
2019-Sep-19 06:18 135 0 gusting 1 3.9
2019-Sep-19 06:13 045 3.9
2019-Sep-19 06:08 045 3.9
2019-Sep-19 06:03 045 3.3